createdAt,value
2016-11-29T00:00:31.859Z,2.91
2016-11-29T00:01:41.566Z,2.85
2016-11-29T00:02:51.577Z,2.8
2016-11-29T00:04:01.601Z,2.77
2016-11-29T00:05:11.612Z,2.81
2016-11-29T00:06:21.948Z,2.88
2016-11-29T00:07:31.960Z,2.87
2016-11-29T00:08:42.275Z,2.91
2016-11-29T00:09:52.598Z,2.77
2016-11-29T00:11:02.955Z,2.78
2016-11-29T00:12:13.287Z,2.76
2016-11-29T00:13:23.296Z,2.8
2016-11-29T00:14:33.308Z,2.72
2016-11-29T00:15:43.316Z,2.81
2016-11-29T00:16:53.328Z,2.83
2016-11-29T00:18:03.654Z,2.81
2016-11-29T00:19:13.697Z,2.76
2016-11-29T00:20:24.033Z,2.8
2016-11-29T00:21:34.045Z,2.84
2016-11-29T00:22:44.387Z,2.77
2016-11-29T00:23:54.719Z,2.77
2016-11-29T00:25:05.056Z,2.78
2016-11-29T00:26:15.067Z,2.83
2016-11-29T00:27:25.394Z,2.76
2016-11-29T00:28:35.741Z,2.76
2016-11-29T00:29:46.079Z,2.77
2016-11-29T00:30:56.100Z,2.73
2016-11-29T00:32:06.417Z,2.78
2016-11-29T00:33:16.758Z,2.73
2016-11-29T00:34:26.181Z,2.69
2016-11-29T00:35:36.197Z,2.7
2016-11-29T00:36:46.523Z,2.77
2016-11-29T00:37:56.554Z,2.73
2016-11-29T00:39:06.916Z,2.66
2016-11-29T00:40:17.228Z,2.72
2016-11-29T00:41:27.240Z,2.72
2016-11-29T00:42:37.242Z,2.62
2016-11-29T00:43:47.588Z,2.67
2016-11-29T00:44:57.287Z,2.6
2016-11-29T00:46:07.641Z,2.65
2016-11-29T00:47:17.349Z,2.69
2016-11-29T00:48:27.053Z,2.69
2016-11-29T00:49:37.391Z,2.7
2016-11-29T00:50:47.419Z,2.62
2016-11-29T00:51:57.776Z,2.63
2016-11-29T00:53:08.102Z,2.65
2016-11-29T00:54:18.435Z,2.62
2016-11-29T00:55:28.755Z,2.63
2016-11-29T00:56:39.103Z,2.58
2016-11-29T00:57:49.434Z,2.6
2016-11-29T00:58:59.767Z,2.58
2016-11-29T01:00:09.783Z,2.59
2016-11-29T01:01:19.807Z,2.59
2016-11-29T01:02:30.143Z,2.62
2016-11-29T01:03:40.533Z,2.63
2016-11-29T01:04:50.889Z,2.55
2016-11-29T01:06:00.901Z,2.62
2016-11-29T01:07:10.599Z,2.55
2016-11-29T01:08:20.925Z,2.6
2016-11-29T01:09:30.944Z,2.59
2016-11-29T01:10:41.263Z,2.47
2016-11-29T01:11:51.287Z,2.47
2016-11-29T01:13:01.341Z,2.48
2016-11-29T01:14:11.657Z,2.49
2016-11-29T01:15:21.365Z,2.49
2016-11-29T01:16:31.681Z,2.48
2016-11-29T01:17:42.010Z,2.52
2016-11-29T01:18:51.712Z,2.51
2016-11-29T01:20:02.031Z,2.51
2016-11-29T01:21:12.352Z,2.45
2016-11-29T01:22:22.370Z,2.49
2016-11-29T01:23:32.403Z,2.48
2016-11-29T01:24:42.729Z,2.49
2016-11-29T01:25:52.439Z,2.51
2016-11-29T01:27:02.777Z,2.52
2016-11-29T01:28:12.173Z,2.49
2016-11-29T01:29:22.173Z,2.48
2016-11-29T01:30:31.565Z,2.52
2016-11-29T01:31:41.886Z,2.52
2016-11-29T01:32:51.895Z,2.54
2016-11-29T01:34:02.227Z,2.48
2016-11-29T01:35:12.223Z,2.48
2016-11-29T01:36:22.551Z,2.51
2016-11-29T01:37:31.941Z,2.48
2016-11-29T01:38:42.269Z,2.52
2016-11-29T01:39:52.265Z,2.51
2016-11-29T01:41:02.278Z,2.48
2016-11-29T01:42:12.599Z,2.54
2016-11-29T01:43:22.311Z,2.47
2016-11-29T01:44:32.624Z,2.47
2016-11-29T01:45:42.005Z,2.42
2016-11-29T01:46:52.010Z,2.45
2016-11-29T01:48:02.335Z,2.51
2016-11-29T01:49:12.675Z,2.44
2016-11-29T01:50:22.997Z,2.45
2016-11-29T01:51:33.019Z,2.47
2016-11-29T01:52:43.340Z,2.45
2016-11-29T01:53:52.416Z,2.44
2016-11-29T01:55:02.109Z,2.42
2016-11-29T01:56:12.424Z,2.42
2016-11-29T01:57:22.777Z,2.41
2016-11-29T01:58:33.128Z,2.41
2016-11-29T01:59:43.145Z,2.45
2016-11-29T02:00:52.887Z,2.44
2016-11-29T02:02:02.904Z,2.41
2016-11-29T02:03:12.909Z,2.41
2016-11-29T02:04:23.231Z,2.36
2016-11-29T02:05:33.244Z,2.33
2016-11-29T02:06:43.295Z,2.4
2016-11-29T02:07:53.298Z,2.34
2016-11-29T02:09:03.298Z,2.33
2016-11-29T02:10:13.617Z,2.38
2016-11-29T02:11:23.631Z,2.3
2016-11-29T02:12:33.654Z,2.42
2016-11-29T02:13:43.976Z,2.34
2016-11-29T02:14:53.977Z,2.41
2016-11-29T02:16:03.684Z,2.38
2016-11-29T02:17:13.381Z,2.36
2016-11-29T02:18:23.717Z,2.36
2016-11-29T02:19:33.425Z,2.44
2016-11-29T02:20:43.440Z,2.33
2016-11-29T02:21:53.467Z,2.41
2016-11-29T02:23:03.789Z,2.4
2016-11-29T02:24:13.799Z,2.44
2016-11-29T02:25:23.497Z,2.47
2016-11-29T02:26:33.506Z,2.41
2016-11-29T02:27:43.576Z,2.44
2016-11-29T02:28:53.637Z,2.41
2016-11-29T02:30:03.953Z,2.41
2016-11-29T02:31:14.280Z,2.47
2016-11-29T02:32:24.317Z,2.44
2016-11-29T02:33:34.330Z,2.44
2016-11-29T02:34:44.024Z,2.44
2016-11-29T02:35:54.030Z,2.48
2016-11-29T02:37:03.729Z,2.42
2016-11-29T02:38:13.728Z,2.42
2016-11-29T02:39:23.435Z,2.4
2016-11-29T02:40:33.139Z,2.42
2016-11-29T02:41:43.461Z,2.4
2016-11-29T02:42:53.160Z,2.44
2016-11-29T02:44:03.484Z,2.4
2016-11-29T02:45:13.488Z,2.33
2016-11-29T02:46:23.187Z,2.33
2016-11-29T02:47:33.516Z,2.29
2016-11-29T02:48:43.199Z,2.29
2016-11-29T02:49:53.220Z,2.34
2016-11-29T02:51:03.225Z,2.29
2016-11-29T02:52:13.550Z,2.24
2016-11-29T02:53:23.867Z,2.3
2016-11-29T02:54:34.177Z,2.23
2016-11-29T02:55:44.508Z,2.24
2016-11-29T02:56:54.520Z,2.2
2016-11-29T02:58:04.228Z,2.22
2016-11-29T02:59:14.244Z,2.13
2016-11-29T03:00:24.290Z,2.15
2016-11-29T03:32:27.192Z,-0.98
2016-11-29T03:33:37.191Z,-1.1
2016-11-29T03:34:47.198Z,-1.06
2016-11-29T03:35:57.195Z,-1.01
2016-11-29T03:37:07.201Z,-0.92
2016-11-29T03:38:16.922Z,-0.91
2016-11-29T03:39:27.272Z,-0.64
2016-11-29T03:40:37.273Z,-0.54
2016-11-29T03:41:47.585Z,-0.36
2016-11-29T03:42:57.594Z,-0.2
2016-11-29T03:44:07.912Z,-0.1
2016-11-29T03:45:18.239Z,0.06
2016-11-29T03:46:28.586Z,0.27
2016-11-29T03:47:38.916Z,0.47
2016-11-29T03:48:48.603Z,0.67
2016-11-29T03:49:58.614Z,0.82
2016-11-29T03:51:08.943Z,0.9
2016-11-29T03:52:19.262Z,1.02
2016-11-29T03:53:29.581Z,1.11
2016-11-29T03:54:39.897Z,1.21
2016-11-29T03:55:50.223Z,1.33
2016-11-29T03:57:00.532Z,1.4
2016-11-29T03:58:10.891Z,1.47
2016-11-29T03:59:20.894Z,1.58
2016-11-29T04:00:30.895Z,1.56
2016-11-29T04:01:41.228Z,1.71
2016-11-29T04:02:51.260Z,1.76
2016-11-29T04:04:00.945Z,1.84
2016-11-29T04:05:10.967Z,1.79
2016-11-29T04:06:20.975Z,1.84
2016-11-29T04:07:30.991Z,1.75
2016-11-29T04:08:41.018Z,1.84
2016-11-29T04:09:51.339Z,1.9
2016-11-29T04:11:00.425Z,1.83
2016-11-29T04:12:10.428Z,1.89
2016-11-29T04:13:20.755Z,1.93
2016-11-29T04:14:31.083Z,1.92
2016-11-29T04:15:41.119Z,1.97
2016-11-29T04:16:51.435Z,2.01
2016-11-29T04:18:00.826Z,2.01
2016-11-29T04:19:10.829Z,1.98
2016-11-29T04:20:20.535Z,2.02
2016-11-29T04:21:30.552Z,2.01
2016-11-29T04:22:40.864Z,2.04
2016-11-29T04:23:50.880Z,2.06
2016-11-29T04:25:01.236Z,2.06
2016-11-29T04:26:11.575Z,2.09
2016-11-29T04:27:21.267Z,2.11
2016-11-29T04:28:31.277Z,2.09
2016-11-29T04:29:40.988Z,2.11
2016-11-29T04:30:51.327Z,2.12
2016-11-29T04:32:01.697Z,2.05
2016-11-29T04:33:11.719Z,2.08
2016-11-29T04:34:22.051Z,2.01
2016-11-29T04:35:32.054Z,2.01
2016-11-29T04:36:42.070Z,2.01
2016-11-29T04:37:52.431Z,2.09
2016-11-29T04:39:02.744Z,2.08
2016-11-29T04:40:13.070Z,1.98
2016-11-29T04:41:23.088Z,2.08
2016-11-29T04:42:32.789Z,2.05
2016-11-29T04:43:43.106Z,2.11
2016-11-29T04:44:52.798Z,2.11
2016-11-29T04:46:02.829Z,2.12
2016-11-29T04:47:13.152Z,2.09
2016-11-29T04:48:22.544Z,2.05
2016-11-29T04:49:32.888Z,2.13
2016-11-29T04:50:43.472Z,2.12
2016-11-29T04:51:53.822Z,2.09
2016-11-29T04:53:03.529Z,2.09
2016-11-29T04:54:13.861Z,2.06
2016-11-29T04:55:22.938Z,2.12
2016-11-29T04:56:33.280Z,2.08
2016-11-29T04:57:43.601Z,2.05
2016-11-29T04:58:53.934Z,2.08
2016-11-29T05:00:04.260Z,1.98
2016-11-29T05:01:14.583Z,2.04
2016-11-29T05:02:24.588Z,1.98
2016-11-29T05:03:34.597Z,2.01
2016-11-29T05:04:44.923Z,2.01
2016-11-29T05:05:54.949Z,2.02
2016-11-29T05:07:05.267Z,2.01
2016-11-29T05:08:15.583Z,1.94
2016-11-29T05:09:25.921Z,1.97
2016-11-29T05:10:36.252Z,1.98
2016-11-29T05:11:46.264Z,2.02
2016-11-29T05:12:56.290Z,1.98
2016-11-29T05:14:06.293Z,2.02
2016-11-29T05:15:15.990Z,1.97
2016-11-29T05:16:26.310Z,2.02
2016-11-29T05:17:36.658Z,1.98
2016-11-29T05:18:46.353Z,2.01
2016-11-29T05:19:56.366Z,1.97
2016-11-29T05:21:06.717Z,2.01
2016-11-29T05:22:17.042Z,2.01
2016-11-29T05:23:27.371Z,1.94
2016-11-29T05:24:37.433Z,2.04
2016-11-29T05:25:47.159Z,1.98
2016-11-29T05:26:57.165Z,2.04
2016-11-29T05:28:07.484Z,2.02
2016-11-29T05:29:17.799Z,2.01
2016-11-29T05:30:28.121Z,2.01
2016-11-29T05:31:38.132Z,1.97
2016-11-29T05:32:47.826Z,1.94
2016-11-29T05:33:58.148Z,1.93
2016-11-29T05:35:07.533Z,1.92
2016-11-29T05:36:17.232Z,1.93
2016-11-29T05:37:27.268Z,1.94
2016-11-29T05:38:37.288Z,2.04
2016-11-29T05:39:47.296Z,2.01
2016-11-29T05:40:57.626Z,1.98
2016-11-29T05:42:07.652Z,1.98
2016-11-29T05:43:17.984Z,1.94
2016-11-29T05:44:28.008Z,1.92
2016-11-29T05:45:37.704Z,1.89
2016-11-29T05:46:47.707Z,1.93
2016-11-29T05:47:58.028Z,1.94
2016-11-29T05:49:08.339Z,1.94
2016-11-29T05:50:18.660Z,1.89
2016-11-29T05:51:28.979Z,1.82
2016-11-29T05:52:38.677Z,1.89
2016-11-29T05:53:48.986Z,1.89
2016-11-29T05:54:59.016Z,1.92
2016-11-29T05:56:09.350Z,1.89
2016-11-29T05:57:19.062Z,1.92
2016-11-29T05:58:29.382Z,1.97
2016-11-29T05:59:39.691Z,1.9
2016-11-29T06:00:49.996Z,1.94
2016-11-29T06:01:59.698Z,1.93
2016-11-29T06:03:09.399Z,1.93
2016-11-29T06:04:19.117Z,1.94
2016-11-29T06:05:28.827Z,1.9
2016-11-29T06:06:38.834Z,1.93
2016-11-29T06:07:48.867Z,2.08
2016-11-29T06:08:59.198Z,1.94
2016-11-29T06:10:09.534Z,1.93
2016-11-29T06:11:19.857Z,1.98
2016-11-29T06:12:30.213Z,1.98
2016-11-29T06:13:40.224Z,1.94
2016-11-29T06:14:50.554Z,1.97
2016-11-29T06:16:00.559Z,2.01
2016-11-29T06:17:10.933Z,2.05
2016-11-29T06:18:20.941Z,1.98
2016-11-29T06:19:30.949Z,2.04
2016-11-29T06:20:40.662Z,2.04
2016-11-29T06:21:50.357Z,2.01
2016-11-29T06:23:00.365Z,2.02
2016-11-29T06:24:10.682Z,2.05
2016-11-29T06:25:21.007Z,1.94
2016-11-29T06:26:31.024Z,2.05
2016-11-29T06:27:40.407Z,1.97
2016-11-29T06:28:50.722Z,1.97
2016-11-29T06:30:00.743Z,2.09
2016-11-29T06:31:10.762Z,2.09
2016-11-29T06:32:20.773Z,2.08
2016-11-29T06:33:30.480Z,2.02
2016-11-29T06:34:40.786Z,2.15
2016-11-29T06:35:51.099Z,2.16
2016-11-29T06:37:00.796Z,2.22
2016-11-29T06:38:10.810Z,2.18
2016-11-29T06:39:21.138Z,2.26
2016-11-29T06:40:30.848Z,2.15
2016-11-29T06:41:40.856Z,2.16
2016-11-29T06:42:50.857Z,2.2
2016-11-29T06:44:01.174Z,2.23
2016-11-29T06:45:11.178Z,2.34
2016-11-29T06:46:21.184Z,2.29
2016-11-29T06:47:30.894Z,2.31
2016-11-29T06:48:40.593Z,2.31
2016-11-29T06:49:50.613Z,2.31
2016-11-29T06:51:00.629Z,2.42
2016-11-29T06:52:10.961Z,2.45
2016-11-29T06:53:21.023Z,2.49
2016-11-29T06:54:30.729Z,2.47
2016-11-29T06:55:40.758Z,2.6
2016-11-29T06:56:50.772Z,2.55
2016-11-29T06:58:01.104Z,2.63
2016-11-29T06:59:11.425Z,2.69
2016-11-29T07:00:21.743Z,2.72
2016-11-29T07:01:31.459Z,2.63
2016-11-29T07:02:41.191Z,2.73
2016-11-29T07:03:50.917Z,2.77
2016-11-29T07:05:00.617Z,2.77
2016-11-29T07:06:10.941Z,2.72
2016-11-29T07:07:20.632Z,2.77
2016-11-29T07:08:30.660Z,2.87
2016-11-29T07:09:40.667Z,2.88
2016-11-29T07:10:50.368Z,2.9
2016-11-29T07:12:00.699Z,2.98
2016-11-29T07:13:10.720Z,3.09
2016-11-29T07:14:21.042Z,3.11
2016-11-29T07:15:31.045Z,3.16
2016-11-29T07:16:41.072Z,3.19
2016-11-29T07:17:50.768Z,3.26
2016-11-29T07:19:00.789Z,3.32
2016-11-29T07:20:10.806Z,3.34
2016-11-29T07:21:21.138Z,3.35
2016-11-29T07:22:31.480Z,3.4
2016-11-29T07:23:41.496Z,3.45
2016-11-29T07:24:51.827Z,3.48
2016-11-29T07:26:01.854Z,3.45
2016-11-29T07:27:11.562Z,3.66
2016-11-29T07:28:21.618Z,3.66
2016-11-29T07:29:31.954Z,3.63
2016-11-29T07:30:41.987Z,3.67
2016-11-29T07:31:51.996Z,3.71
2016-11-29T07:33:02.319Z,3.76
2016-11-29T07:34:12.027Z,3.82
2016-11-29T07:35:22.347Z,3.85
2016-11-29T07:36:32.701Z,3.89
2016-11-29T07:37:43.032Z,3.92
2016-11-29T07:38:53.374Z,3.89
2016-11-29T07:40:03.690Z,3.89
2016-11-29T07:41:13.716Z,3.94
2016-11-29T07:42:23.414Z,3.99
2016-11-29T07:43:33.725Z,3.97
2016-11-29T07:44:44.042Z,4.07
2016-11-29T07:45:53.758Z,4.1
2016-11-29T07:47:03.482Z,4.1
2016-11-29T07:48:13.801Z,4.2
2016-11-29T07:49:23.819Z,4.17
2016-11-29T07:50:34.146Z,4.2
2016-11-29T07:51:44.477Z,4.18
2016-11-29T07:52:54.178Z,4.14
2016-11-29T07:54:04.486Z,4.26
2016-11-29T07:55:14.797Z,4.24
2016-11-29T07:56:25.126Z,4.18
2016-11-29T07:57:35.135Z,4.29
2016-11-29T07:58:44.840Z,4.35
2016-11-29T07:59:54.557Z,4.4
2016-11-29T08:01:04.575Z,4.38
2016-11-29T08:02:14.611Z,4.42
2016-11-29T08:03:24.618Z,4.44
2016-11-29T08:04:34.629Z,4.5
2016-11-29T08:05:44.666Z,4.53
2016-11-29T08:06:54.673Z,4.66
2016-11-29T08:08:05.000Z,4.72
2016-11-29T08:09:15.010Z,4.69
2016-11-29T08:10:25.362Z,4.75
2016-11-29T08:11:35.384Z,4.84
2016-11-29T08:12:45.401Z,4.79
2016-11-29T08:13:55.112Z,4.87
2016-11-29T08:15:05.130Z,4.94
2016-11-29T08:16:14.841Z,4.95
2016-11-29T08:17:25.163Z,5.06
2016-11-29T08:18:35.174Z,5
2016-11-29T08:19:44.881Z,5.09
2016-11-29T08:20:54.267Z,5.13
2016-11-29T08:22:03.983Z,5.1
2016-11-29T08:23:14.026Z,5.2
2016-11-29T08:24:24.039Z,5.3
2016-11-29T08:25:34.046Z,5.31
2016-11-29T08:26:44.059Z,5.33
2016-11-29T08:27:54.403Z,5.31
2016-11-29T08:29:04.110Z,5.44
2016-11-29T08:30:14.431Z,5.37
2016-11-29T08:31:24.757Z,5.45
2016-11-29T08:32:34.464Z,5.46
2016-11-29T08:33:43.850Z,5.49
2016-11-29T08:34:54.182Z,5.57
2016-11-29T08:36:03.888Z,5.63
2016-11-29T08:37:13.577Z,5.69
2016-11-29T08:38:23.612Z,5.72
2016-11-29T08:39:33.007Z,5.78
2016-11-29T08:40:43.024Z,5.84
2016-11-29T08:41:52.735Z,5.89
2016-11-29T08:43:02.779Z,5.81
2016-11-29T08:44:12.806Z,5.87
2016-11-29T08:45:23.123Z,5.98
2016-11-29T08:46:33.133Z,5.99
2016-11-29T08:47:43.480Z,6.14
2016-11-29T08:48:53.213Z,6.15
2016-11-29T08:50:03.532Z,6.18
2016-11-29T08:51:12.936Z,6.14
2016-11-29T08:52:22.959Z,6.26
2016-11-29T08:53:33.294Z,6.37
2016-11-29T08:54:43.613Z,6.31
2016-11-29T08:55:53.937Z,6.39
2016-11-29T08:57:03.954Z,6.4
2016-11-29T08:58:14.287Z,6.49
2016-11-29T08:59:24.314Z,6.54
2016-11-29T09:00:34.020Z,6.51
2016-11-29T09:01:44.355Z,6.51
2016-11-29T09:02:54.683Z,6.61
2016-11-29T09:04:04.703Z,6.6
2016-11-29T09:05:14.731Z,6.62
2016-11-29T09:06:25.059Z,6.6
2016-11-29T09:07:35.402Z,6.64
2016-11-29T09:08:45.727Z,6.7
2016-11-29T09:09:55.773Z,6.7
2016-11-29T09:11:06.961Z,6.67
2016-11-29T09:12:18.538Z,6.68
2016-11-29T09:13:31.134Z,6.78
2016-11-29T09:14:43.881Z,6.75
2016-11-29T09:15:56.162Z,6.75
2016-11-29T09:17:08.403Z,6.76
2016-11-29T09:18:19.570Z,6.85
2016-11-29T09:19:29.915Z,6.8
2016-11-29T09:20:40.273Z,6.8
2016-11-29T09:21:50.295Z,6.86
2016-11-29T09:23:00.317Z,6.94
2016-11-29T09:24:10.344Z,6.97
2016-11-29T09:25:20.674Z,7.01
2016-11-29T09:26:30.066Z,7.08
2016-11-29T09:27:40.408Z,7.01
2016-11-29T09:28:50.749Z,6.97
2016-11-29T09:30:00.772Z,7.09
2016-11-29T09:31:10.799Z,7.16
2016-11-29T09:32:20.796Z,7.16
2016-11-29T09:33:31.127Z,7.19
2016-11-29T09:34:41.137Z,7.19
2016-11-29T09:35:51.464Z,7.27
2016-11-29T09:37:01.822Z,7.21
2016-11-29T09:38:12.155Z,7.39
2016-11-29T09:39:22.170Z,7.36
2016-11-29T09:40:32.176Z,7.55
2016-11-29T09:41:42.213Z,7.47
2016-11-29T09:42:52.231Z,7.49
2016-11-29T09:44:02.561Z,7.58
2016-11-29T09:45:12.898Z,7.61
2016-11-29T09:46:23.240Z,7.59
2016-11-29T09:47:33.252Z,7.75
2016-11-29T09:48:43.286Z,7.75
2016-11-29T09:49:53.304Z,7.82
2016-11-29T09:51:03.631Z,7.71
2016-11-29T09:52:13.638Z,7.75
2016-11-29T09:53:23.976Z,7.78
2016-11-29T09:54:34.296Z,7.71
2016-11-29T09:55:44.624Z,7.7
2016-11-29T09:56:54.654Z,7.78
2016-11-29T09:58:04.992Z,7.82
2016-11-29T09:59:15.007Z,7.47
2016-11-29T10:00:25.329Z,7.61
2016-11-29T10:01:35.656Z,7.58
2016-11-29T10:02:45.988Z,7.12
2016-11-29T10:03:56.339Z,7
2016-11-29T10:05:06.362Z,7.09
2016-11-29T10:06:15.767Z,7.18
2016-11-29T10:07:26.089Z,7.39
2016-11-29T10:08:36.158Z,7.18
2016-11-29T10:09:46.469Z,7.08
2016-11-29T10:10:56.494Z,6.75
2016-11-29T10:12:06.502Z,6.54
2016-11-29T10:13:16.835Z,6.61
2016-11-29T10:14:27.146Z,6.94
2016-11-29T10:15:37.486Z,7.18
2016-11-29T10:16:47.503Z,7.03
2016-11-29T10:17:57.518Z,7
2016-11-29T10:19:07.527Z,6.8
2016-11-29T10:20:17.867Z,7
2016-11-29T10:21:27.271Z,7.21
2016-11-29T10:22:37.613Z,7.51
2016-11-29T10:23:47.631Z,7.54
2016-11-29T10:24:57.946Z,7.47
2016-11-29T10:26:07.638Z,7.51
2016-11-29T10:27:17.345Z,7.75
2016-11-29T10:28:27.376Z,7.88
2016-11-29T10:29:37.709Z,7.85
2016-11-29T10:30:47.416Z,7.89
2016-11-29T10:31:57.160Z,7.99
2016-11-29T10:33:07.487Z,8.26
2016-11-29T10:34:17.505Z,8.46
2016-11-29T10:35:27.827Z,8.32
2016-11-29T10:36:37.534Z,8.39
2016-11-29T10:37:47.545Z,8.16
2016-11-29T10:38:57.876Z,8.39
2016-11-29T10:40:07.908Z,8.46
2016-11-29T10:41:18.230Z,8.22
2016-11-29T10:42:27.961Z,7.89
2016-11-29T10:43:38.275Z,7.7
2016-11-29T10:44:48.611Z,7.63
2016-11-29T10:45:58.622Z,7.4
2016-11-29T10:47:08.935Z,7.36
2016-11-29T10:48:18.651Z,7.45
2016-11-29T10:49:28.354Z,7.36
2016-11-29T10:50:38.371Z,7.23
2016-11-29T10:51:48.710Z,7.27
2016-11-29T10:52:59.028Z,7.23
2016-11-29T10:54:09.049Z,7.67
2016-11-29T10:55:19.381Z,7.98
2016-11-29T10:56:29.394Z,8.03
2016-11-29T10:57:39.424Z,7.85
2016-11-29T10:58:49.435Z,7.74
2016-11-29T10:59:59.461Z,7.75
2016-11-29T11:01:09.480Z,7.95
2016-11-29T11:02:19.800Z,7.86
2016-11-29T11:03:30.137Z,8.25
2016-11-29T11:04:40.156Z,8.58
2016-11-29T11:05:50.165Z,8.72
2016-11-29T11:07:00.492Z,8.42
2016-11-29T11:08:10.845Z,8.44
2016-11-29T11:09:21.176Z,8.17
2016-11-29T11:10:31.203Z,8.03
2016-11-29T11:11:41.225Z,7.95
2016-11-29T11:12:51.249Z,8.19
2016-11-29T11:14:01.259Z,8.24
2016-11-29T11:15:11.595Z,8.13
2016-11-29T11:16:21.626Z,8.06
2016-11-29T11:17:31.332Z,7.91
2016-11-29T11:18:41.650Z,8.19
2016-11-29T11:19:51.667Z,7.89
2016-11-29T11:21:02.008Z,7.63
2016-11-29T11:22:12.329Z,7.36
2016-11-29T11:23:22.043Z,7.19
2016-11-29T11:24:32.390Z,7.39
2016-11-29T11:25:42.089Z,7.29
2016-11-29T11:26:52.397Z,7.19
2016-11-29T11:28:02.093Z,7.13
2016-11-29T11:29:12.419Z,6.95
2016-11-29T11:30:22.447Z,6.86
2016-11-29T11:31:32.498Z,6.83
2016-11-29T11:32:42.534Z,6.93
2016-11-29T11:33:52.571Z,6.94
2016-11-29T11:35:02.899Z,6.79
2016-11-29T11:36:12.932Z,6.91
2016-11-29T11:37:23.272Z,6.76
2016-11-29T11:38:33.305Z,6.73
2016-11-29T11:39:43.649Z,6.76
2016-11-29T11:40:53.676Z,7.13
2016-11-29T11:42:03.988Z,7.49
2016-11-29T11:43:14.334Z,7.75
2016-11-29T11:44:24.366Z,8.06
2016-11-29T11:45:34.398Z,8.1
2016-11-29T11:46:44.427Z,8.22
2016-11-29T11:47:54.441Z,8.4
2016-11-29T11:49:04.788Z,8.47
2016-11-29T11:50:14.796Z,8.43
2016-11-29T11:51:24.505Z,8.57
2016-11-29T11:52:34.534Z,8.54
2016-11-29T11:53:43.925Z,8.68
2016-11-29T11:54:54.276Z,8.76
2016-11-29T11:56:04.629Z,8.67
2016-11-29T11:57:14.664Z,8.72
2016-11-29T11:58:25.007Z,8.82
2016-11-29T11:59:35.331Z,9.04
2016-11-29T12:00:45.655Z,9.16
2016-11-29T12:01:55.663Z,9.19
2016-11-29T12:03:06.008Z,9.26
2016-11-29T12:04:16.038Z,9.26
2016-11-29T12:05:26.382Z,9.29
2016-11-29T12:06:36.088Z,9.26
2016-11-29T12:07:46.425Z,9.35
2016-11-29T12:08:56.747Z,10.35
2016-11-29T12:10:06.452Z,11.79
2016-11-29T12:11:16.787Z,12.73
2016-11-29T12:12:27.110Z,13.25
2016-11-29T12:13:37.434Z,13.51
2016-11-29T12:14:47.771Z,13.81
2016-11-29T12:15:58.132Z,14.01
2016-11-29T12:17:08.464Z,14.13
2016-11-29T12:18:18.476Z,13.75
2016-11-29T12:19:28.484Z,12.77
2016-11-29T12:20:38.803Z,12.08
2016-11-29T12:21:49.131Z,11.42
2016-11-29T12:22:58.847Z,11.41
2016-11-29T12:24:09.174Z,11.88
2016-11-29T12:25:19.205Z,12.81
2016-11-29T12:26:29.542Z,13.24
2016-11-29T12:27:39.879Z,13.7
2016-11-29T12:28:50.210Z,14.09
2016-11-29T12:30:00.533Z,14.42
2016-11-29T12:31:10.561Z,14.6
2016-11-29T12:32:20.886Z,14.57
2016-11-29T12:33:30.897Z,14.26
2016-11-29T12:34:40.913Z,13.63
2016-11-29T12:35:51.280Z,12.88
2016-11-29T12:37:01.307Z,12.59
2016-11-29T12:38:11.335Z,12.65
2016-11-29T12:39:21.680Z,13.42
2016-11-29T12:40:32.002Z,13.99
2016-11-29T12:41:41.734Z,14.28
2016-11-29T12:42:51.749Z,14.2
2016-11-29T12:44:02.087Z,14.59
2016-11-29T12:45:12.418Z,14.7
2016-11-29T12:46:22.446Z,14.48
2016-11-29T12:47:32.783Z,13.47
2016-11-29T12:48:42.809Z,12.44
2016-11-29T12:49:52.833Z,11.39
2016-11-29T12:51:03.167Z,11.08
2016-11-29T12:52:13.189Z,10.79
2016-11-29T12:53:23.550Z,10.36
2016-11-29T12:54:33.880Z,10.21
2016-11-29T12:55:44.200Z,10.05
2016-11-29T12:56:54.217Z,9.88
2016-11-29T12:58:04.544Z,9.7
2016-11-29T12:59:14.555Z,9.67
2016-11-29T13:00:24.246Z,9.55
2016-11-29T13:01:34.812Z,9.59
2016-11-29T13:02:44.844Z,9.47
2016-11-29T13:03:55.176Z,9.24
2016-11-29T13:05:05.508Z,9.19
2016-11-29T13:06:15.536Z,9.09
2016-11-29T13:07:25.863Z,8.94
2016-11-29T13:08:36.202Z,8.86
2016-11-29T13:09:46.232Z,8.71
2016-11-29T13:10:55.616Z,8.69
2016-11-29T13:12:05.027Z,8.65
2016-11-29T13:13:15.375Z,8.65
2016-11-29T13:14:25.722Z,8.58
2016-11-29T13:15:35.962Z,8.46
2016-11-29T13:16:48.470Z,8.42
2016-11-29T13:17:58.506Z,8.31
2016-11-29T13:19:08.502Z,8.39
2016-11-29T13:20:18.504Z,8.44
2016-11-29T13:21:28.525Z,8.35
2016-11-29T13:22:38.528Z,8.26
2016-11-29T13:23:48.550Z,8.31
2016-11-29T13:24:58.575Z,8.31
2016-11-29T13:26:08.898Z,8.25
2016-11-29T13:27:18.603Z,8.21
2016-11-29T13:28:28.935Z,8.14
2016-11-29T13:29:39.256Z,8.17
2016-11-29T13:30:49.604Z,8.11
2016-11-29T13:31:59.921Z,8.07
2016-11-29T13:33:10.267Z,8.14
2016-11-29T13:34:20.303Z,8.01
2016-11-29T13:35:30.345Z,7.88
2016-11-29T13:36:40.367Z,7.93
2016-11-29T13:37:50.687Z,7.89
2016-11-29T13:39:01.015Z,7.88
2016-11-29T13:40:11.346Z,7.75
2016-11-29T13:41:21.673Z,7.73
2016-11-29T13:42:32.006Z,7.67
2016-11-29T13:43:41.738Z,7.63
2016-11-29T13:44:51.454Z,7.51
2016-11-29T13:46:01.782Z,7.51
2016-11-29T13:47:11.817Z,7.55
2016-11-29T13:48:21.829Z,7.41
2016-11-29T13:49:31.850Z,7.41
2016-11-29T13:50:42.182Z,7.36
2016-11-29T13:51:52.538Z,7.3
2016-11-29T13:53:02.875Z,7.26
2016-11-29T13:54:12.888Z,7.22
2016-11-29T13:55:22.898Z,7.31
2016-11-29T13:56:32.896Z,7.18
2016-11-29T13:57:42.292Z,7.15
2016-11-29T13:58:52.618Z,7.15
2016-11-29T14:00:02.942Z,7.12
2016-11-29T14:01:12.952Z,7.05
2016-11-29T14:02:23.288Z,7.16
2016-11-29T14:03:33.629Z,7.05
2016-11-29T14:04:43.034Z,7.01
2016-11-29T14:05:53.369Z,7.03
2016-11-29T14:07:03.386Z,6.97
2016-11-29T14:08:13.422Z,6.88
2016-11-29T14:09:23.429Z,6.88
2016-11-29T14:10:33.780Z,6.83
2016-11-29T14:11:43.810Z,6.79
2016-11-29T14:12:54.133Z,6.73
2016-11-29T14:14:04.152Z,6.72
2016-11-29T14:15:13.877Z,6.61
2016-11-29T14:16:24.199Z,6.57
2016-11-29T14:17:34.220Z,6.44
2016-11-29T14:18:44.252Z,6.47
2016-11-29T14:19:54.825Z,6.37
2016-11-29T14:21:05.186Z,6.42
2016-11-29T14:22:15.516Z,6.24
2016-11-29T14:23:25.540Z,6.2
2016-11-29T14:24:35.240Z,6.02
2016-11-29T14:25:45.562Z,5.98
2016-11-29T14:26:55.599Z,5.95
2016-11-29T14:28:05.927Z,5.84
2016-11-29T14:29:15.954Z,5.81
2016-11-29T14:30:26.299Z,5.8
2016-11-29T14:31:36.636Z,5.67
2016-11-29T14:32:46.648Z,5.66
2016-11-29T14:33:57.004Z,5.6
2016-11-29T14:35:07.037Z,5.63
2016-11-29T14:36:17.063Z,5.57
2016-11-29T14:37:27.101Z,5.52
2016-11-29T14:38:37.421Z,5.51
2016-11-29T14:39:47.743Z,5.41
2016-11-29T14:40:57.451Z,5.37
2016-11-29T14:42:07.467Z,5.41
2016-11-29T14:43:17.815Z,5.41
2016-11-29T14:44:28.150Z,5.3
2016-11-29T14:45:37.867Z,5.31
2016-11-29T14:46:48.197Z,5.21
2016-11-29T14:47:58.200Z,5.15
2016-11-29T14:49:07.922Z,5.13
2016-11-29T14:50:17.934Z,5.08
2016-11-29T14:51:28.275Z,5.09
2016-11-29T14:52:38.600Z,5.03
2016-11-29T14:53:48.633Z,5.02
2016-11-29T14:54:58.980Z,5
2016-11-29T14:56:09.311Z,4.94
2016-11-29T14:57:19.643Z,4.87
2016-11-29T14:58:29.346Z,4.94
2016-11-29T14:59:39.682Z,4.75
2016-11-29T15:00:50.010Z,4.75
2016-11-29T15:02:00.381Z,4.78
2016-11-29T15:03:10.458Z,4.71
2016-11-29T15:04:20.459Z,4.71
2016-11-29T15:05:29.536Z,4.58
2016-11-29T15:06:39.572Z,4.5
2016-11-29T15:07:49.909Z,4.53
2016-11-29T15:08:59.616Z,4.58
2016-11-29T15:10:09.624Z,4.48
2016-11-29T15:11:19.980Z,4.46
2016-11-29T15:12:30.008Z,4.5
2016-11-29T15:13:40.024Z,4.36
2016-11-29T15:14:50.348Z,4.39
2016-11-29T15:16:00.365Z,4.38
2016-11-29T15:17:10.391Z,4.33
2016-11-29T15:18:20.720Z,4.36
2016-11-29T15:19:30.436Z,4.38
2016-11-29T15:20:39.837Z,4.36
2016-11-29T15:21:50.188Z,4.29
2016-11-29T15:22:59.888Z,4.2
2016-11-29T15:24:10.223Z,4.14
2016-11-29T15:25:20.764Z,4.22
2016-11-29T15:26:31.096Z,4.18
2016-11-29T15:27:41.107Z,4.22
2016-11-29T15:28:51.440Z,4.3
2016-11-29T15:30:01.782Z,4.21
2016-11-29T15:31:12.127Z,4.17
2016-11-29T15:32:22.145Z,4.26
2016-11-29T15:33:32.156Z,4.21
2016-11-29T15:34:42.164Z,4.18
2016-11-29T15:35:51.880Z,4.14
2016-11-29T15:37:01.881Z,4.18
2016-11-29T15:38:12.199Z,4.15
2016-11-29T15:39:22.211Z,4.18
2016-11-29T15:40:32.532Z,4.14
2016-11-29T15:41:42.858Z,4.1
2016-11-29T15:42:53.195Z,4.18
2016-11-29T15:44:04.938Z,4.12
2016-11-29T15:45:14.636Z,4.15
2016-11-29T15:46:24.858Z,4.11
2016-11-29T15:47:35.182Z,4.04
2016-11-29T15:48:45.509Z,4.1
2016-11-29T15:49:55.855Z,4.08
2016-11-29T15:51:05.554Z,4.11
2016-11-29T15:52:15.574Z,4.11
2016-11-29T15:53:25.341Z,4.08
2016-11-29T15:54:35.449Z,4.07
2016-11-29T15:55:46.794Z,4.03
2016-11-29T15:56:57.746Z,4
2016-11-29T15:58:08.514Z,3.94
2016-11-29T15:59:18.739Z,3.93
2016-11-29T16:00:29.132Z,3.94
2016-11-29T16:01:39.369Z,3.97
2016-11-29T16:02:50.840Z,3.97
2016-11-29T16:04:01.282Z,3.92
2016-11-29T16:05:11.199Z,4